createdAt,value
2018-05-14T00:00:20.092Z,0
2018-05-14T00:01:20.040Z,0
2018-05-14T00:02:19.808Z,0
2018-05-14T00:03:20.111Z,0
2018-05-14T00:04:19.853Z,0
2018-05-14T00:05:20.131Z,0
2018-05-14T00:06:19.910Z,0
2018-05-14T00:07:19.670Z,0
2018-05-14T00:08:20.183Z,0
2018-05-14T00:09:20.205Z,0
2018-05-14T00:10:19.735Z,0
2018-05-14T00:11:19.503Z,0
2018-05-14T00:12:20.316Z,0
2018-05-14T00:13:20.062Z,0
2018-05-14T00:14:20.344Z,0
2018-05-14T00:15:20.149Z,0
2018-05-14T00:16:20.395Z,0
2018-05-14T00:17:20.124Z,0
2018-05-14T00:18:19.897Z,0
2018-05-14T00:19:20.432Z,0
2018-05-14T00:20:20.447Z,0
2018-05-14T00:21:19.977Z,0
2018-05-14T00:22:20.249Z,0
2018-05-14T00:23:20.014Z,0
2018-05-14T00:24:20.624Z,0
2018-05-14T00:25:20.334Z,0
2018-05-14T00:26:20.086Z,0
2018-05-14T00:27:20.603Z,0
2018-05-14T00:28:20.635Z,0
2018-05-14T00:29:20.655Z,0
2018-05-14T00:30:20.236Z,0
2018-05-14T00:31:20.194Z,0
2018-05-14T00:32:20.715Z,0
2018-05-14T00:33:20.491Z,0
2018-05-14T00:34:20.767Z,0
2018-05-14T00:35:20.298Z,0
2018-05-14T00:36:20.060Z,0
2018-05-14T00:37:20.597Z,0
2018-05-14T00:38:20.875Z,0
2018-05-14T00:39:20.646Z,0
2018-05-14T00:40:20.972Z,0
2018-05-14T00:41:20.431Z,0
2018-05-14T00:42:20.453Z,0
2018-05-14T00:43:20.483Z,0
2018-05-14T00:44:20.766Z,0
2018-05-14T00:45:21.084Z,0
2018-05-14T00:46:21.054Z,0
2018-05-14T00:47:20.568Z,0
2018-05-14T00:48:20.594Z,0
2018-05-14T00:49:20.965Z,0
2018-05-14T00:50:20.911Z,0
2018-05-14T00:51:20.902Z,0
2018-05-14T00:52:20.931Z,0
2018-05-14T00:53:21.211Z,0
2018-05-14T00:54:21.230Z,0
2018-05-14T00:55:21.250Z,0
2018-05-14T00:56:21.272Z,0
2018-05-14T00:57:21.051Z,0
2018-05-14T00:58:21.324Z,0
2018-05-14T00:59:21.345Z,0
2018-05-14T01:00:21.415Z,0
2018-05-14T01:01:21.386Z,0
2018-05-14T01:02:21.411Z,0
2018-05-14T01:03:21.427Z,0
2018-05-14T01:04:20.962Z,0
2018-05-14T01:05:21.213Z,0
2018-05-14T01:06:21.491Z,0
2018-05-14T01:07:21.511Z,0
2018-05-14T01:08:21.301Z,0
2018-05-14T01:09:21.561Z,0
2018-05-14T01:10:21.579Z,0
2018-05-14T01:11:21.111Z,0
2018-05-14T01:12:21.628Z,0
2018-05-14T01:13:21.140Z,0
2018-05-14T01:14:21.425Z,0
2018-05-14T01:15:21.238Z,0
2018-05-14T01:16:21.205Z,0
2018-05-14T01:17:21.226Z,0
2018-05-14T01:18:21.509Z,0
2018-05-14T01:19:21.805Z,0
2018-05-14T01:20:21.052Z,0
2018-05-14T01:21:21.591Z,0
2018-05-14T01:22:21.603Z,0
2018-05-14T01:23:21.623Z,0
2018-05-14T01:24:21.388Z,0
2018-05-14T01:25:21.666Z,0
2018-05-14T01:26:21.953Z,0
2018-05-14T01:27:21.196Z,0
2018-05-14T01:28:21.216Z,0
2018-05-14T01:29:21.496Z,0
2018-05-14T01:30:21.819Z,0
2018-05-14T01:31:21.790Z,0
2018-05-14T01:32:22.086Z,0
2018-05-14T01:33:21.584Z,0
2018-05-14T01:34:21.865Z,0
2018-05-14T01:35:22.132Z,0
2018-05-14T01:36:22.125Z,0
2018-05-14T01:37:22.158Z,0
2018-05-14T01:38:22.175Z,0
2018-05-14T01:39:21.692Z,0
2018-05-14T01:40:22.226Z,0
2018-05-14T01:41:22.018Z,0
2018-05-14T01:42:22.040Z,0
2018-05-14T01:43:22.061Z,0
2018-05-14T01:44:22.078Z,0
2018-05-14T01:45:22.148Z,0
2018-05-14T01:46:22.123Z,0
2018-05-14T01:47:22.413Z,0
2018-05-14T01:48:22.419Z,0
2018-05-14T01:49:22.445Z,0
2018-05-14T01:50:22.462Z,0
2018-05-14T01:51:22.488Z,0
2018-05-14T01:52:22.529Z,0
2018-05-14T01:53:22.517Z,0
2018-05-14T01:54:22.314Z,0
2018-05-14T01:55:22.579Z,0
2018-05-14T01:56:22.359Z,0
2018-05-14T01:57:22.140Z,0
2018-05-14T01:58:22.155Z,0
2018-05-14T01:59:22.425Z,0
2018-05-14T02:00:22.497Z,0
2018-05-14T02:01:22.724Z,0
2018-05-14T02:02:22.740Z,0
2018-05-14T02:03:22.252Z,0
2018-05-14T02:04:22.534Z,0
2018-05-14T02:05:22.358Z,0
2018-05-14T02:06:22.832Z,0
2018-05-14T02:07:22.853Z,0
2018-05-14T02:08:22.623Z,0
2018-05-14T02:09:22.641Z,0
2018-05-14T02:10:22.820Z,0
2018-05-14T02:11:22.934Z,0
2018-05-14T02:12:22.446Z,0
2018-05-14T02:13:22.718Z,0
2018-05-14T02:14:22.743Z,0
2018-05-14T02:15:22.824Z,0
2018-05-14T02:16:22.545Z,0
2018-05-14T02:17:22.309Z,0
2018-05-14T02:18:23.090Z,0
2018-05-14T02:19:22.863Z,0
2018-05-14T02:20:23.185Z,0
2018-05-14T02:21:22.906Z,0
2018-05-14T02:22:22.927Z,0
2018-05-14T02:23:23.218Z,0
2018-05-14T02:24:22.718Z,0
2018-05-14T02:25:23.001Z,0
2018-05-14T02:26:22.504Z,0
2018-05-14T02:27:23.282Z,0
2018-05-14T02:28:23.309Z,0
2018-05-14T02:29:23.369Z,0
2018-05-14T02:30:23.361Z,0
2018-05-14T02:31:23.380Z,0
2018-05-14T02:32:22.914Z,0
2018-05-14T02:33:23.189Z,0
2018-05-14T02:34:23.270Z,0
2018-05-14T02:35:24.210Z,0
2018-05-14T02:36:23.238Z,0
2018-05-14T02:37:23.260Z,0
2018-05-14T02:38:23.023Z,0
2018-05-14T02:39:23.040Z,0
2018-05-14T02:40:23.064Z,0
2018-05-14T02:41:23.627Z,0
2018-05-14T02:42:23.109Z,0
2018-05-14T02:43:23.402Z,0
2018-05-14T02:44:23.662Z,0
2018-05-14T02:45:23.673Z,0
2018-05-14T02:46:23.457Z,0
2018-05-14T02:47:23.732Z,0
2018-05-14T02:48:23.792Z,0
2018-05-14T02:49:23.518Z,0
2018-05-14T02:50:23.603Z,0
2018-05-14T02:51:23.557Z,0
2018-05-14T02:52:23.673Z,0
2018-05-14T02:53:23.866Z,0
2018-05-14T02:54:23.382Z,0
2018-05-14T02:55:23.924Z,0
2018-05-14T02:56:23.698Z,0
2018-05-14T02:57:23.967Z,0
2018-05-14T02:58:23.979Z,0
2018-05-14T02:59:23.513Z,0
2018-05-14T03:00:24.032Z,0
2018-05-14T03:01:23.540Z,0
2018-05-14T03:02:24.107Z,0
2018-05-14T03:03:24.111Z,0
2018-05-14T03:04:23.855Z,0
2018-05-14T03:05:23.937Z,0
2018-05-14T03:06:23.896Z,0
2018-05-14T03:07:24.173Z,0
2018-05-14T03:08:24.212Z,0
2018-05-14T03:09:23.711Z,0
2018-05-14T03:10:24.135Z,0
2018-05-14T03:11:24.275Z,0
2018-05-14T03:12:24.034Z,0
2018-05-14T03:13:24.044Z,0
2018-05-14T03:14:23.810Z,0
2018-05-14T03:15:23.848Z,0
2018-05-14T03:16:24.105Z,0
2018-05-14T03:17:23.883Z,0
2018-05-14T03:18:24.145Z,0
2018-05-14T03:19:24.443Z,0
2018-05-14T03:20:24.524Z,0
2018-05-14T03:21:24.235Z,0
2018-05-14T03:22:23.999Z,0
2018-05-14T03:23:24.283Z,0
2018-05-14T03:24:24.554Z,0
2018-05-14T03:25:24.375Z,0
2018-05-14T03:26:24.346Z,0
2018-05-14T03:27:24.638Z,0
2018-05-14T03:28:24.137Z,0
2018-05-14T03:29:24.410Z,0
2018-05-14T03:30:24.693Z,0
2018-05-14T03:31:24.740Z,0
2018-05-14T03:32:24.483Z,0
2018-05-14T03:33:24.754Z,0
2018-05-14T03:34:24.782Z,0
2018-05-14T03:35:24.854Z,0
2018-05-14T03:36:24.570Z,0
2018-05-14T03:37:24.623Z,0
2018-05-14T03:38:24.636Z,0
2018-05-14T03:39:24.383Z,0
2018-05-14T03:40:24.903Z,0
2018-05-14T03:41:24.160Z,0
2018-05-14T03:42:24.686Z,0
2018-05-14T03:43:24.720Z,0
2018-05-14T03:44:24.986Z,0
2018-05-14T03:45:25.027Z,0
2018-05-14T03:46:25.033Z,0
2018-05-14T03:47:25.074Z,0
2018-05-14T03:48:24.827Z,0
2018-05-14T03:49:24.887Z,0
2018-05-14T03:50:25.171Z,0
2018-05-14T03:51:24.386Z,0
2018-05-14T03:52:25.262Z,0
2018-05-14T03:53:24.692Z,5
2018-05-14T03:54:25.229Z,0
2018-05-14T03:55:25.251Z,0
2018-05-14T03:56:24.767Z,5
2018-05-14T03:57:25.037Z,5
2018-05-14T03:58:25.317Z,5
2018-05-14T03:59:25.091Z,5
2018-05-14T04:00:25.377Z,5
2018-05-14T04:01:25.397Z,5
2018-05-14T04:02:25.929Z,5
2018-05-14T04:03:25.182Z,5
2018-05-14T04:04:25.460Z,5
2018-05-14T04:05:25.292Z,5
2018-05-14T04:06:24.979Z,5
2018-05-14T04:07:25.503Z,5
2018-05-14T04:08:25.804Z,5
2018-05-14T04:09:25.555Z,5
2018-05-14T04:10:25.574Z,5
2018-05-14T04:11:25.354Z,5
2018-05-14T04:12:25.376Z,5
2018-05-14T04:13:25.653Z,5
2018-05-14T04:14:25.158Z,5
2018-05-14T04:15:25.177Z,5
2018-05-14T04:16:25.269Z,5
2018-05-14T04:17:25.480Z,5
2018-05-14T04:18:25.499Z,5
2018-05-14T04:19:25.769Z,5
2018-05-14T04:20:25.852Z,5
2018-05-14T04:21:25.830Z,5
2018-05-14T04:22:25.584Z,5
2018-05-14T04:23:25.862Z,5
2018-05-14T04:24:26.215Z,5
2018-05-14T04:25:26.092Z,5
2018-05-14T04:26:25.920Z,5
2018-05-14T04:27:25.949Z,5
2018-05-14T04:28:25.985Z,5
2018-05-14T04:29:25.994Z,5
2018-05-14T04:30:26.002Z,10
2018-05-14T04:31:25.534Z,10
2018-05-14T04:32:26.067Z,10
2018-05-14T04:33:26.084Z,10
2018-05-14T04:34:25.855Z,15
2018-05-14T04:35:26.186Z,10
2018-05-14T04:36:26.169Z,15
2018-05-14T04:37:25.667Z,20
2018-05-14T04:38:25.948Z,20
2018-05-14T04:39:25.715Z,20
2018-05-14T04:40:26.245Z,25
2018-05-14T04:41:25.738Z,30
2018-05-14T04:42:26.011Z,30
2018-05-14T04:43:25.776Z,30
2018-05-14T04:44:26.059Z,30
2018-05-14T04:45:26.125Z,35
2018-05-14T04:46:26.104Z,30
2018-05-14T04:47:26.123Z,30
2018-05-14T04:48:25.893Z,30
2018-05-14T04:49:26.420Z,30
2018-05-14T04:50:26.496Z,25
2018-05-14T04:51:25.730Z,25
2018-05-14T04:52:25.737Z,30
2018-05-14T04:53:26.274Z,30
2018-05-14T04:54:25.858Z,30
2018-05-14T04:55:26.563Z,30
2018-05-14T04:56:26.094Z,35
2018-05-14T04:57:26.362Z,40
2018-05-14T04:58:26.627Z,45
2018-05-14T04:59:27.109Z,45
2018-05-14T05:00:25.911Z,50
2018-05-14T05:01:26.711Z,55
2018-05-14T05:02:26.471Z,60
2018-05-14T05:03:26.499Z,65
2018-05-14T05:04:26.773Z,65
2018-05-14T05:05:26.839Z,65
2018-05-14T05:06:26.560Z,60
2018-05-14T05:07:26.866Z,55
2018-05-14T05:08:26.349Z,55
2018-05-14T05:09:26.869Z,55
2018-05-14T05:10:26.672Z,55
2018-05-14T05:11:26.523Z,60
2018-05-14T05:12:26.753Z,60
2018-05-14T05:13:26.966Z,60
2018-05-14T05:14:27.008Z,60
2018-05-14T05:15:26.763Z,65
2018-05-14T05:16:26.782Z,65
2018-05-14T05:17:26.808Z,65
2018-05-14T05:18:26.829Z,65
2018-05-14T05:19:27.108Z,70
2018-05-14T05:20:26.913Z,70
2018-05-14T05:21:26.661Z,70
2018-05-14T05:22:27.167Z,70
2018-05-14T05:23:26.944Z,70
2018-05-14T05:24:26.714Z,70
2018-05-14T05:25:27.257Z,70
2018-05-14T05:26:27.008Z,65
2018-05-14T05:27:27.290Z,60
2018-05-14T05:28:27.198Z,55
2018-05-14T05:29:27.053Z,55
2018-05-14T05:30:26.826Z,55
2018-05-14T05:31:27.375Z,55
2018-05-14T05:32:26.877Z,60
2018-05-14T05:33:26.912Z,75
2018-05-14T05:34:27.555Z,80
2018-05-14T05:35:27.507Z,90
2018-05-14T05:36:27.221Z,100
2018-05-14T05:37:27.513Z,100
2018-05-14T05:38:27.032Z,100
2018-05-14T05:39:27.552Z,100
2018-05-14T05:40:27.418Z,100
2018-05-14T05:41:27.594Z,100
2018-05-14T05:42:27.360Z,95
2018-05-14T05:43:27.381Z,95
2018-05-14T05:44:27.667Z,95
2018-05-14T05:45:27.709Z,90
2018-05-14T05:46:27.460Z,85
2018-05-14T05:47:27.223Z,80
2018-05-14T05:48:27.750Z,75
2018-05-14T05:49:27.903Z,75
2018-05-14T05:50:27.798Z,75
2018-05-14T05:51:27.817Z,75
2018-05-14T05:52:28.038Z,75
2018-05-14T05:53:27.609Z,75
2018-05-14T05:54:27.923Z,75
2018-05-14T05:55:27.904Z,75
2018-05-14T05:56:27.426Z,85
2018-05-14T05:57:27.949Z,90
2018-05-14T05:58:27.467Z,90
2018-05-14T05:59:28.056Z,95
2018-05-14T06:00:27.924Z,100
2018-05-14T06:01:27.882Z,100
2018-05-14T06:02:28.057Z,100
2018-05-14T06:03:28.096Z,100
2018-05-14T06:04:28.118Z,105
2018-05-14T06:05:28.140Z,105
2018-05-14T06:06:27.911Z,110
2018-05-14T06:07:28.180Z,110
2018-05-14T06:08:28.227Z,115
2018-05-14T06:09:28.196Z,115
2018-05-14T06:10:27.740Z,115
2018-05-14T06:11:27.760Z,115
2018-05-14T06:12:28.301Z,115
2018-05-14T06:13:27.812Z,110
2018-05-14T06:14:28.345Z,120
2018-05-14T06:15:29.901Z,125
2018-05-14T06:16:28.385Z,130
2018-05-14T06:17:28.403Z,140
2018-05-14T06:18:28.430Z,145
2018-05-14T06:19:28.199Z,145
2018-05-14T06:20:28.232Z,145
2018-05-14T06:21:28.551Z,150
2018-05-14T06:22:28.933Z,160
2018-05-14T06:23:28.280Z,170
2018-05-14T06:24:28.581Z,175
2018-05-14T06:25:28.334Z,185
2018-05-14T06:26:28.364Z,190
2018-05-14T06:27:28.425Z,200
2018-05-14T06:28:28.151Z,205
2018-05-14T06:29:28.179Z,210
2018-05-14T06:30:28.499Z,210
2018-05-14T06:31:28.222Z,215
2018-05-14T06:32:28.744Z,215
2018-05-14T06:33:28.737Z,220
2018-05-14T06:34:28.505Z,230
2018-05-14T06:35:28.736Z,230
2018-05-14T06:36:28.549Z,235
2018-05-14T06:37:28.577Z,235
2018-05-14T06:38:28.600Z,240
2018-05-14T06:39:29.048Z,245
2018-05-14T06:40:29.015Z,250
2018-05-14T06:41:29.089Z,255
2018-05-14T06:42:29.075Z,255
2018-05-14T06:43:28.993Z,260
2018-05-14T06:44:28.731Z,260
2018-05-14T06:45:29.098Z,265
2018-05-14T06:46:29.014Z,270
2018-05-14T06:47:29.095Z,270
2018-05-14T06:48:28.884Z,275
2018-05-14T06:49:28.641Z,280
2018-05-14T06:50:29.188Z,285
2018-05-14T06:51:28.689Z,290
2018-05-14T06:52:29.218Z,290
2018-05-14T06:53:28.992Z,290
2018-05-14T06:54:29.013Z,295
2018-05-14T06:55:29.299Z,290
2018-05-14T06:56:29.066Z,290
2018-05-14T06:57:29.085Z,290
2018-05-14T06:58:29.108Z,290
2018-05-14T06:59:28.966Z,295
2018-05-14T07:00:29.206Z,295
2018-05-14T07:01:29.176Z,290
2018-05-14T07:02:29.467Z,290
2018-05-14T07:03:29.233Z,285
2018-05-14T07:04:29.011Z,275
2018-05-14T07:05:29.276Z,275
2018-05-14T07:06:29.303Z,270
2018-05-14T07:07:29.331Z,270
2018-05-14T07:08:29.090Z,255
2018-05-14T07:09:29.360Z,245
2018-05-14T07:10:28.877Z,245
2018-05-14T07:11:29.869Z,250
2018-05-14T07:12:29.694Z,260
2018-05-14T07:13:29.201Z,270
2018-05-14T07:14:29.483Z,260
2018-05-14T07:15:29.609Z,260
2018-05-14T07:16:29.277Z,260
2018-05-14T07:17:29.804Z,270
2018-05-14T07:18:29.843Z,280
2018-05-14T07:19:29.869Z,295
2018-05-14T07:20:29.588Z,325
2018-05-14T07:21:29.920Z,350
2018-05-14T07:22:29.950Z,375
2018-05-14T07:23:29.745Z,370
2018-05-14T07:24:29.995Z,345
2018-05-14T07:25:29.608Z,325
2018-05-14T07:26:29.791Z,315
2018-05-14T07:27:30.063Z,320
2018-05-14T07:28:29.587Z,330
2018-05-14T07:29:29.856Z,335
2018-05-14T07:30:30.304Z,335
2018-05-14T07:31:29.919Z,340
2018-05-14T07:32:29.926Z,350
2018-05-14T07:33:29.955Z,345
2018-05-14T07:34:30.237Z,335
2018-05-14T07:35:30.156Z,330
2018-05-14T07:36:30.076Z,330
2018-05-14T07:37:30.297Z,360
2018-05-14T07:38:30.314Z,345
2018-05-14T07:39:30.203Z,320
2018-05-14T07:40:30.415Z,325
2018-05-14T07:41:30.389Z,335
2018-05-14T07:42:30.172Z,340
2018-05-14T07:43:30.187Z,340
2018-05-14T07:44:30.473Z,320
2018-05-14T07:45:30.309Z,290
2018-05-14T07:46:30.582Z,265
2018-05-14T07:47:30.582Z,250
2018-05-14T07:48:30.599Z,245
2018-05-14T07:49:30.634Z,250
2018-05-14T07:50:30.397Z,260
2018-05-14T07:51:30.670Z,275
2018-05-14T07:52:30.709Z,285
2018-05-14T07:53:30.220Z,290
2018-05-14T07:54:30.116Z,290
2018-05-14T07:55:30.533Z,285
2018-05-14T07:56:30.935Z,285
2018-05-14T07:57:30.317Z,280
2018-05-14T07:58:30.848Z,275
2018-05-14T07:59:30.433Z,270
2018-05-14T08:00:30.808Z,260
2018-05-14T08:01:30.442Z,255
2018-05-14T08:02:30.697Z,245
2018-05-14T08:03:30.471Z,240
2018-05-14T08:04:30.241Z,235
2018-05-14T08:05:30.530Z,225
2018-05-14T08:06:30.414Z,225
2018-05-14T08:07:30.574Z,220
2018-05-14T08:08:31.123Z,215
2018-05-14T08:09:30.873Z,210
2018-05-14T08:10:31.166Z,205
2018-05-14T08:11:32.182Z,210
2018-05-14T08:12:31.204Z,215
2018-05-14T08:13:31.236Z,215
2018-05-14T08:14:31.283Z,220
2018-05-14T08:15:30.771Z,230
2018-05-14T08:16:31.302Z,240
2018-05-14T08:17:31.077Z,250
2018-05-14T08:18:31.358Z,255
2018-05-14T08:19:31.121Z,260
2018-05-14T08:20:30.641Z,260
2018-05-14T08:21:31.560Z,250
2018-05-14T08:22:31.214Z,245
2018-05-14T08:23:31.701Z,245
2018-05-14T08:24:31.010Z,240
2018-05-14T08:25:31.549Z,240
2018-05-14T08:26:31.370Z,245
2018-05-14T08:27:31.590Z,255
2018-05-14T08:28:31.625Z,255
2018-05-14T08:29:31.390Z,260
2018-05-14T08:30:31.674Z,265
2018-05-14T08:31:31.356Z,275
2018-05-14T08:32:31.477Z,285
2018-05-14T08:33:31.492Z,295
2018-05-14T08:34:31.268Z,310
2018-05-14T08:35:31.292Z,335
2018-05-14T08:36:31.538Z,345
2018-05-14T08:37:31.562Z,350
2018-05-14T08:38:31.593Z,365
2018-05-14T08:39:31.613Z,380
2018-05-14T08:40:31.388Z,390
2018-05-14T08:41:31.671Z,405
2018-05-14T08:42:31.563Z,415
2018-05-14T08:43:31.999Z,420
2018-05-14T08:44:32.208Z,420
2018-05-14T08:45:31.792Z,420
2018-05-14T08:46:31.869Z,420
2018-05-14T08:47:32.106Z,415
2018-05-14T08:48:32.148Z,410
2018-05-14T08:49:32.247Z,405
2018-05-14T08:50:31.669Z,420
2018-05-14T08:51:32.227Z,430
2018-05-14T08:52:32.250Z,445
2018-05-14T08:53:32.555Z,490
2018-05-14T08:54:33.229Z,580
2018-05-14T08:55:32.080Z,570
2018-05-14T08:56:31.849Z,545
2018-05-14T08:57:31.894Z,545
2018-05-14T08:58:32.439Z,570
2018-05-14T08:59:31.932Z,435
2018-05-14T09:00:32.216Z,400
2018-05-14T09:01:32.290Z,380
2018-05-14T09:02:32.524Z,365
2018-05-14T09:03:32.315Z,360
2018-05-14T09:04:32.596Z,345
2018-05-14T09:05:32.102Z,345
2018-05-14T09:06:32.129Z,345
2018-05-14T09:07:32.427Z,350
2018-05-14T09:08:32.192Z,365
2018-05-14T09:09:32.754Z,395
2018-05-14T09:10:32.753Z,410
2018-05-14T09:11:32.513Z,450
2018-05-14T09:12:32.523Z,545
2018-05-14T09:13:32.304Z,565
2018-05-14T09:14:32.833Z,535
2018-05-14T09:15:32.856Z,490
2018-05-14T09:16:32.685Z,465
2018-05-14T09:17:32.412Z,480
2018-05-14T09:18:32.184Z,520
2018-05-14T09:19:32.909Z,440
2018-05-14T09:20:32.751Z,405
2018-05-14T09:21:32.768Z,375
2018-05-14T09:22:32.820Z,345
2018-05-14T09:23:32.847Z,330
2018-05-14T09:24:32.886Z,310
2018-05-14T09:25:33.402Z,300
2018-05-14T09:26:32.678Z,300
2018-05-14T09:27:33.237Z,300
2018-05-14T09:28:33.251Z,300
2018-05-14T09:29:33.009Z,305
2018-05-14T09:30:33.049Z,305
2018-05-14T09:31:33.405Z,300
2018-05-14T09:32:33.355Z,300
2018-05-14T09:33:32.615Z,295
2018-05-14T09:34:33.409Z,295
2018-05-14T09:35:33.260Z,290
2018-05-14T09:36:33.527Z,310
2018-05-14T09:37:33.231Z,420
2018-05-14T09:38:33.511Z,335
2018-05-14T09:39:33.546Z,340
2018-05-14T09:40:33.301Z,335
2018-05-14T09:41:33.579Z,340
2018-05-14T09:42:33.366Z,345
2018-05-14T09:43:33.383Z,365
2018-05-14T09:44:33.563Z,375
2018-05-14T09:45:33.449Z,395
2018-05-14T09:46:33.775Z,415
2018-05-14T09:47:33.297Z,435
2018-05-14T09:48:33.539Z,455
2018-05-14T09:49:33.548Z,460
2018-05-14T09:50:33.952Z,460
2018-05-14T09:51:33.353Z,475
2018-05-14T09:52:33.379Z,475
2018-05-14T09:53:33.659Z,495
2018-05-14T09:54:33.944Z,510
2018-05-14T09:55:33.463Z,535
2018-05-14T09:56:33.748Z,550
2018-05-14T09:57:34.142Z,555
2018-05-14T09:58:33.816Z,570
2018-05-14T09:59:34.100Z,700
2018-05-14T10:00:34.110Z,715
2018-05-14T10:01:33.940Z,750
2018-05-14T10:02:33.665Z,590
2018-05-14T10:03:34.395Z,535
2018-05-14T10:04:33.714Z,505
2018-05-14T10:05:33.766Z,490
2018-05-14T10:06:33.793Z,475
2018-05-14T10:07:34.323Z,470
2018-05-14T10:08:34.102Z,445
2018-05-14T10:09:34.125Z,420
2018-05-14T10:10:34.165Z,395
2018-05-14T10:11:34.445Z,380
2018-05-14T10:12:33.965Z,370
2018-05-14T10:13:34.258Z,355
2018-05-14T10:14:34.322Z,350
2018-05-14T10:15:34.051Z,350
2018-05-14T10:16:34.632Z,340
2018-05-14T10:17:34.366Z,330
2018-05-14T10:18:34.651Z,335
2018-05-14T10:19:34.712Z,325
2018-05-14T10:20:34.445Z,380
2018-05-14T10:21:34.472Z,430
2018-05-14T10:22:34.513Z,385
2018-05-14T10:23:34.851Z,395
2018-05-14T10:24:34.641Z,415
2018-05-14T10:25:34.839Z,430
2018-05-14T10:26:34.615Z,450
2018-05-14T10:27:34.663Z,480
2018-05-14T10:28:34.419Z,515
2018-05-14T10:29:34.771Z,560
2018-05-14T10:30:34.740Z,630
2018-05-14T10:31:34.550Z,640
2018-05-14T10:32:34.797Z,675
2018-05-14T10:33:35.171Z,675
2018-05-14T10:34:35.105Z,690
2018-05-14T10:35:35.135Z,625
2018-05-14T10:36:34.660Z,630
2018-05-14T10:37:35.187Z,600
2018-05-14T10:38:34.961Z,595
2018-05-14T10:39:34.987Z,600
2018-05-14T10:40:35.050Z,630
2018-05-14T10:41:35.053Z,625
2018-05-14T10:42:35.087Z,640
2018-05-14T10:43:35.114Z,715
2018-05-14T10:44:35.391Z,675
2018-05-14T10:45:35.423Z,650
2018-05-14T10:46:35.261Z,610
2018-05-14T10:47:35.221Z,630
2018-05-14T10:48:34.999Z,610
2018-05-14T10:49:35.564Z,630
2018-05-14T10:50:35.562Z,635
2018-05-14T10:51:35.338Z,630
2018-05-14T10:52:35.389Z,635
2018-05-14T10:53:35.400Z,650
2018-05-14T10:54:35.496Z,630
2018-05-14T10:55:35.214Z,625
2018-05-14T10:56:35.514Z,625
2018-05-14T10:57:35.535Z,675
2018-05-14T10:58:35.705Z,795
2018-05-14T10:59:35.581Z,805
2018-05-14T11:00:35.618Z,860
2018-05-14T11:01:35.709Z,775
2018-05-14T11:02:35.945Z,910
2018-05-14T11:03:35.963Z,905
2018-05-14T11:04:35.488Z,900
2018-05-14T11:05:35.265Z,660
2018-05-14T11:06:35.799Z,620
2018-05-14T11:07:36.077Z,625
2018-05-14T11:08:35.865Z,620
2018-05-14T11:09:35.639Z,575
2018-05-14T11:10:36.300Z,525
2018-05-14T11:11:36.221Z,510
2018-05-14T11:12:36.254Z,510
2018-05-14T11:13:35.517Z,510
2018-05-14T11:14:36.097Z,525
2018-05-14T11:15:36.094Z,545
2018-05-14T11:16:35.923Z,555
2018-05-14T11:17:36.183Z,565
2018-05-14T11:18:36.185Z,565
2018-05-14T11:19:36.217Z,730
2018-05-14T11:20:36.512Z,690
2018-05-14T11:21:36.285Z,770
2018-05-14T11:22:36.310Z,820
2018-05-14T11:23:36.591Z,860
2018-05-14T11:24:35.859Z,845
2018-05-14T11:25:36.413Z,660
2018-05-14T11:26:36.590Z,865
2018-05-14T11:27:36.737Z,640
2018-05-14T11:28:36.750Z,650
2018-05-14T11:29:36.802Z,900
2018-05-14T11:30:36.314Z,905
2018-05-14T11:31:36.896Z,940
2018-05-14T11:32:36.364Z,950
2018-05-14T11:33:36.908Z,935
2018-05-14T11:34:36.685Z,915
2018-05-14T11:35:36.720Z,790
2018-05-14T11:36:36.998Z,830
2018-05-14T11:37:36.784Z,665
2018-05-14T11:38:37.083Z,585
2018-05-14T11:39:37.103Z,520
2018-05-14T11:40:36.872Z,505
2018-05-14T11:41:36.962Z,520
2018-05-14T11:42:36.686Z,505
2018-05-14T11:43:36.975Z,505
2018-05-14T11:44:37.009Z,520
2018-05-14T11:45:37.036Z,545
2018-05-14T11:46:37.069Z,1090
2018-05-14T11:47:37.362Z,635
2018-05-14T11:48:37.396Z,600
2018-05-14T11:49:37.167Z,530
2018-05-14T11:50:37.200Z,525
2018-05-14T11:51:37.484Z,500
2018-05-14T11:52:37.518Z,480
2018-05-14T11:53:37.523Z,475
2018-05-14T11:54:37.049Z,510
2018-05-14T11:55:37.334Z,780
2018-05-14T11:56:37.526Z,515
2018-05-14T11:57:36.926Z,480
2018-05-14T11:58:37.450Z,455
2018-05-14T11:59:37.714Z,430
2018-05-14T12:00:37.826Z,430
2018-05-14T12:01:37.268Z,450
2018-05-14T12:02:37.563Z,500
2018-05-14T12:03:37.338Z,520
2018-05-14T12:04:37.876Z,560
2018-05-14T12:05:37.668Z,590
2018-05-14T12:06:37.691Z,710
2018-05-14T12:07:37.968Z,1095
2018-05-14T12:08:37.755Z,1160
2018-05-14T12:09:37.532Z,1220
2018-05-14T12:10:38.069Z,1305
2018-05-14T12:11:37.643Z,1445
2018-05-14T12:12:38.128Z,835
2018-05-14T12:13:37.656Z,705
2018-05-14T12:14:37.683Z,635
2018-05-14T12:15:37.970Z,1125
2018-05-14T12:16:37.615Z,1700
2018-05-14T12:17:38.307Z,1775
2018-05-14T12:18:38.064Z,1805
2018-05-14T12:19:38.115Z,1830
2018-05-14T12:20:38.146Z,1480
2018-05-14T12:21:38.382Z,960
2018-05-14T12:22:38.422Z,915
2018-05-14T12:23:38.449Z,1660
2018-05-14T12:24:38.248Z,1665
2018-05-14T12:25:38.650Z,1745
2018-05-14T12:26:38.323Z,1700
2018-05-14T12:27:38.339Z,1545
2018-05-14T12:28:38.363Z,1575
2018-05-14T12:29:38.398Z,1650
2018-05-14T12:30:38.204Z,1755
2018-05-14T12:31:38.500Z,1825
2018-05-14T12:32:38.269Z,1815
2018-05-14T12:33:38.567Z,1740
2018-05-14T12:34:38.589Z,1765
2018-05-14T12:35:38.382Z,1785
2018-05-14T12:36:38.688Z,1930
2018-05-14T12:37:38.661Z,2025
2018-05-14T12:38:38.735Z,2065
2018-05-14T12:39:38.766Z,2080
2018-05-14T12:40:39.113Z,2035
2018-05-14T12:41:38.311Z,1830
2018-05-14T12:42:38.861Z,1895
2018-05-14T12:43:38.891Z,1935
2018-05-14T12:44:38.665Z,1820
2018-05-14T12:45:39.278Z,1855
2018-05-14T12:46:39.047Z,1890
2018-05-14T12:47:39.053Z,1875
2018-05-14T12:48:38.828Z,1920
2018-05-14T12:49:39.126Z,1895
2018-05-14T12:50:39.243Z,1755
2018-05-14T12:51:39.423Z,1725
2018-05-14T12:52:38.955Z,1460
2018-05-14T12:53:39.250Z,700
2018-05-14T12:54:39.538Z,625
2018-05-14T12:55:39.616Z,1355
2018-05-14T12:56:39.615Z,1690
2018-05-14T12:57:39.395Z,1645
2018-05-14T12:58:39.422Z,1710
2018-05-14T12:59:39.723Z,1345
2018-05-14T13:00:39.807Z,595
2018-05-14T13:01:39.812Z,545
2018-05-14T13:02:39.837Z,665
2018-05-14T13:03:39.625Z,560
2018-05-14T13:04:39.398Z,600
2018-05-14T13:05:39.430Z,740
2018-05-14T13:06:39.986Z,710
2018-05-14T13:07:39.769Z,695
2018-05-14T13:08:39.542Z,705
2018-05-14T13:09:39.821Z,645
2018-05-14T13:10:40.111Z,635
2018-05-14T13:11:39.897Z,715
2018-05-14T13:12:40.185Z,1025
2018-05-14T13:13:40.214Z,795
2018-05-14T13:14:40.254Z,965
2018-05-14T13:15:40.329Z,1245
2018-05-14T13:16:39.811Z,1110
2018-05-14T13:17:40.105Z,1725
2018-05-14T13:18:40.137Z,1595
2018-05-14T13:19:40.420Z,1480
2018-05-14T13:20:40.221Z,1120
2018-05-14T13:21:39.964Z,1060
2018-05-14T13:22:40.519Z,1220
2018-05-14T13:23:40.545Z,1100
2018-05-14T13:24:40.332Z,1475
2018-05-14T13:25:40.363Z,1110
2018-05-14T13:26:40.138Z,1640
2018-05-14T13:27:40.694Z,1675
2018-05-14T13:28:40.467Z,970
2018-05-14T13:29:40.504Z,895
2018-05-14T13:30:40.587Z,1095
2018-05-14T13:31:40.829Z,690
2018-05-14T13:32:40.864Z,695
2018-05-14T13:33:40.658Z,1265
2018-05-14T13:34:40.941Z,1675
2018-05-14T13:35:40.968Z,1605
2018-05-14T13:36:40.743Z,1030
2018-05-14T13:37:41.291Z,1435
2018-05-14T13:38:41.070Z,1180
2018-05-14T13:39:40.843Z,655
2018-05-14T13:40:41.132Z,540
2018-05-14T13:41:40.907Z,465
2018-05-14T13:42:41.199Z,440
2018-05-14T13:43:41.233Z,490
2018-05-14T13:44:41.525Z,1355
2018-05-14T13:45:41.100Z,600
2018-05-14T13:46:41.346Z,670
2018-05-14T13:47:41.108Z,1600
2018-05-14T13:48:41.160Z,1605
2018-05-14T13:49:41.176Z,955
2018-05-14T13:50:41.219Z,1575
2018-05-14T13:51:41.261Z,1355
2018-05-14T13:52:41.537Z,830
2018-05-14T13:53:41.310Z,715
2018-05-14T13:54:41.595Z,1710
2018-05-14T13:55:41.371Z,1860
2018-05-14T13:56:41.621Z,1830
2018-05-14T13:57:41.445Z,1855
2018-05-14T13:58:41.774Z,1695
2018-05-14T13:59:41.503Z,885
2018-05-14T14:00:41.291Z,825
2018-05-14T14:01:41.588Z,685
2018-05-14T14:02:41.863Z,480
2018-05-14T14:03:41.641Z,360
2018-05-14T14:04:41.692Z,290